TimeCST,TemperatureF,Dew PointF,Humidity,Sea Level PressureIn,VisibilityMPH,Wind Direction,Wind SpeedMPH,Gust SpeedMPH,PrecipitationIn,Events,Conditions,WindDirDegrees,DateUTC
12:56 AM,46.9,46.9,100,29.94,10.0,NW,8.1,-,N/A,,Overcast,320,2013-12-29 06:56:00
1:56 AM,46.9,46.9,100,29.91,10.0,North,5.8,-,N/A,,Overcast,350,2013-12-29 07:56:00
2:56 AM,46.9,46.9,100,29.93,10.0,NW,6.9,-,N/A,,Unknown,320,2013-12-29 08:56:00
3:05 AM,46.9,46.9,100,29.95,10.0,NW,6.9,-,N/A,,Overcast,310,2013-12-29 09:05:00
3:23 AM,46.9,46.0,97,29.96,10.0,Variable,5.8,-,N/A,,Overcast,0,2013-12-29 09:23:00
3:56 AM,46.9,46.0,97,29.94,10.0,NW,6.9,-,0.00,Rain,Light Rain,320,2013-12-29 09:56:00
4:35 AM,46.9,46.0,97,29.95,10.0,WNW,3.5,-,0.00,,Scattered Clouds,300,2013-12-29 10:35:00
4:56 AM,46.9,46.0,97,29.97,10.0,WNW,4.6,-,0.00,,Scattered Clouds,300,2013-12-29 10:56:00
5:04 AM,46.9,46.0,97,29.96,10.0,NNW,3.5,-,N/A,,Mostly Cloudy,330,2013-12-29 11:04:00
5:56 AM,46.9,46.0,97,29.99,10.0,NW,4.6,-,N/A,,Overcast,310,2013-12-29 11:56:00
6:56 AM,46.9,46.0,97,30.01,9.0,NW,4.6,-,N/A,,Overcast,310,2013-12-29 12:56:00
7:56 AM,48.9,46.9,93,30.04,10.0,NNW,10.4,-,N/A,,Overcast,330,2013-12-29 13:56:00
8:56 AM,50.0,46.9,89,30.06,10.0,NNW,9.2,-,N/A,,Overcast,330,2013-12-29 14:56:00
9:56 AM,51.1,48.9,92,30.08,10.0,NNW,10.4,-,N/A,,Overcast,330,2013-12-29 15:56:00
10:31 AM,53.1,48.9,86,30.06,10.0,NNW,9.2,-,N/A,,Overcast,340,2013-12-29 16:31:00
10:56 AM,54.0,48.9,83,30.06,10.0,NNW,12.7,-,N/A,,Overcast,340,2013-12-29 16:56:00
11:56 AM,57.0,48.9,74,30.04,10.0,NNW,13.8,-,N/A,,Overcast,340,2013-12-29 17:56:00
12:56 PM,57.0,48.9,74,30.02,10.0,North,9.2,-,N/A,,Overcast,10,2013-12-29 18:56:00
1:27 PM,57.9,48.9,72,30.00,10.0,North,8.1,-,N/A,,Mostly Cloudy,360,2013-12-29 19:27:00
1:49 PM,59.0,48.9,69,30.01,10.0,NNE,6.9,-,N/A,,Mostly Cloudy,20,2013-12-29 19:49:00
1:56 PM,59.0,48.9,69,30.01,10.0,North,8.1,-,N/A,,Mostly Cloudy,360,2013-12-29 19:56:00
2:56 PM,59.0,48.9,69,30.01,10.0,NNE,6.9,-,N/A,,Mostly Cloudy,20,2013-12-29 20:56:00
3:19 PM,57.0,48.9,74,30.01,10.0,NNW,9.2,-,N/A,,Mostly Cloudy,340,2013-12-29 21:19:00
3:41 PM,57.0,48.0,72,30.03,10.0,NNW,8.1,-,N/A,,Mostly Cloudy,340,2013-12-29 21:41:00
3:56 PM,55.0,48.0,77,30.04,10.0,NNW,6.9,-,N/A,,Mostly Cloudy,330,2013-12-29 21:56:00
4:56 PM,52.0,46.9,83,30.06,10.0,NW,5.8,-,N/A,,Mostly Cloudy,310,2013-12-29 22:56:00
5:29 PM,50.0,46.9,89,30.06,10.0,NW,3.5,-,N/A,,Mostly Cloudy,320,2013-12-29 23:29:00
5:56 PM,48.0,46.0,93,30.07,10.0,NNW,5.8,-,N/A,,Clear,330,2013-12-29 23:56:00
6:56 PM,46.9,45.0,93,30.08,10.0,NW,3.5,-,N/A,,Clear,320,2013-12-30 00:56:00
7:56 PM,44.1,44.1,100,30.09,10.0,NNW,4.6,-,N/A,,Clear,330,2013-12-30 01:56:00
8:56 PM,46.0,45.0,96,30.10,10.0,NNW,5.8,-,0.00,,Clear,340,2013-12-30 02:56:00
9:56 PM,45.0,45.0,100,30.11,10.0,North,5.8,-,N/A,,Clear,350,2013-12-30 03:56:00
10:56 PM,45.0,44.1,97,30.12,10.0,Calm,Calm,-,N/A,,Clear,0,2013-12-30 04:56:00
11:41 PM,42.1,42.1,100,30.12,1.8,Calm,Calm,-,N/A,,Clear,0,2013-12-30 05:41:00
11:43 PM,41.0,41.0,100,30.12,1.0,Calm,Calm,-,N/A,,Mist,0,2013-12-30 05:43:00
11:52 PM,42.8,41.0,93,30.12,3.0,Calm,Calm,-,N/A,,Partly Cloudy,0,2013-12-30 05:52:00
11:56 PM,42.1,41.0,96,30.13,10.0,Calm,Calm,-,0.00,Rain,Light Rain,0,2013-12-30 05:56:00